sensor_id;sensor_type;location;lat;lon;timestamp;temperature;humidity
8103;DHT22;4094;49.948;11.574;2023-09-19T00:00:48;20.20;75.40
8103;DHT22;4094;49.948;11.574;2023-09-19T00:03:18;20.20;75.50
8103;DHT22;4094;49.948;11.574;2023-09-19T00:05:47;20.20;75.40
8103;DHT22;4094;49.948;11.574;2023-09-19T00:08:18;20.20;75.50
8103;DHT22;4094;49.948;11.574;2023-09-19T00:10:51;20.20;75.50
8103;DHT22;4094;49.948;11.574;2023-09-19T00:13:21;20.20;75.50
8103;DHT22;4094;49.948;11.574;2023-09-19T00:15:52;20.20;75.40
8103;DHT22;4094;49.948;11.574;2023-09-19T00:18:23;20.20;75.50
8103;DHT22;4094;49.948;11.574;2023-09-19T00:20:57;20.20;75.50
8103;DHT22;4094;49.948;11.574;2023-09-19T00:23:26;20.20;75.40
8103;DHT22;4094;49.948;11.574;2023-09-19T00:26:00;20.20;75.40
8103;DHT22;4094;49.948;11.574;2023-09-19T00:28:29;20.20;75.40
8103;DHT22;4094;49.948;11.574;2023-09-19T00:30:59;20.20;75.40
8103;DHT22;4094;49.948;11.574;2023-09-19T00:33:31;20.20;75.40
8103;DHT22;4094;49.948;11.574;2023-09-19T00:36:01;20.20;75.40
8103;DHT22;4094;49.948;11.574;2023-09-19T00:38:33;20.20;75.50
8103;DHT22;4094;49.948;11.574;2023-09-19T00:41:03;20.20;75.50
8103;DHT22;4094;49.948;11.574;2023-09-19T00:43:33;20.10;75.30
8103;DHT22;4094;49.948;11.574;2023-09-19T00:46:03;20.10;75.30
8103;DHT22;4094;49.948;11.574;2023-09-19T00:48:38;20.10;75.30
8103;DHT22;4094;49.948;11.574;2023-09-19T00:51:09;20.10;75.40
8103;DHT22;4094;49.948;11.574;2023-09-19T00:53:39;20.10;75.50
8103;DHT22;4094;49.948;11.574;2023-09-19T00:56:15;20.10;75.60
8103;DHT22;4094;49.948;11.574;2023-09-19T00:58:47;20.10;75.70
8103;DHT22;4094;49.948;11.574;2023-09-19T01:01:17;20.10;75.70
8103;DHT22;4094;49.948;11.574;2023-09-19T01:03:46;20.10;75.80
8103;DHT22;4094;49.948;11.574;2023-09-19T01:06:16;20.00;75.70
8103;DHT22;4094;49.948;11.574;2023-09-19T01:08:46;20.00;76.00
8103;DHT22;4094;49.948;11.574;2023-09-19T01:11:21;20.00;75.80
8103;DHT22;4094;49.948;11.574;2023-09-19T01:13:58;20.00;75.80
8103;DHT22;4094;49.948;11.574;2023-09-19T01:16:36;20.00;75.70
8103;DHT22;4094;49.948;11.574;2023-09-19T01:19:25;20.00;75.60
8103;DHT22;4094;49.948;11.574;2023-09-19T01:22:07;20.00;75.70
8103;DHT22;4094;49.948;11.574;2023-09-19T01:24:58;20.00;75.60
8103;DHT22;4094;49.948;11.574;2023-09-19T01:27:55;20.00;75.60
8103;DHT22;4094;49.948;11.574;2023-09-19T01:30:32;20.00;75.70
8103;DHT22;4094;49.948;11.574;2023-09-19T01:33:05;20.00;75.70
8103;DHT22;4094;49.948;11.574;2023-09-19T01:35:37;20.00;75.70
8103;DHT22;4094;49.948;11.574;2023-09-19T01:38:07;20.00;75.70
8103;DHT22;4094;49.948;11.574;2023-09-19T01:40:42;20.00;75.60
8103;DHT22;4094;49.948;11.574;2023-09-19T01:43:17;20.00;75.60
8103;DHT22;4094;49.948;11.574;2023-09-19T01:45:59;20.00;75.70
8103;DHT22;4094;49.948;11.574;2023-09-19T01:48:38;20.00;75.70
8103;DHT22;4094;49.948;11.574;2023-09-19T01:51:10;20.00;75.60
8103;DHT22;4094;49.948;11.574;2023-09-19T01:53:43;20.00;75.60
8103;DHT22;4094;49.948;11.574;2023-09-19T01:56:21;20.00;75.60
8103;DHT22;4094;49.948;11.574;2023-09-19T01:58:54;20.00;75.50
8103;DHT22;4094;49.948;11.574;2023-09-19T02:01:27;20.00;75.50
8103;DHT22;4094;49.948;11.574;2023-09-19T02:03:58;20.00;75.50
8103;DHT22;4094;49.948;11.574;2023-09-19T02:06:27;19.90;75.40
8103;DHT22;4094;49.948;11.574;2023-09-19T02:08:56;19.90;75.30
8103;DHT22;4094;49.948;11.574;2023-09-19T02:11:25;19.90;75.30
8103;DHT22;4094;49.948;11.574;2023-09-19T02:13:54;19.90;75.20
8103;DHT22;4094;49.948;11.574;2023-09-19T02:16:25;19.90;75.30
8103;DHT22;4094;49.948;11.574;2023-09-19T02:18:54;19.90;75.30
8103;DHT22;4094;49.948;11.574;2023-09-19T02:21:24;19.90;75.40
8103;DHT22;4094;49.948;11.574;2023-09-19T02:23:53;19.90;75.30
8103;DHT22;4094;49.948;11.574;2023-09-19T02:26:22;19.90;75.40
8103;DHT22;4094;49.948;11.574;2023-09-19T02:28:52;19.90;75.30
8103;DHT22;4094;49.948;11.574;2023-09-19T02:31:21;19.90;75.50
8103;DHT22;4094;49.948;11.574;2023-09-19T02:33:52;19.90;75.40
8103;DHT22;4094;49.948;11.574;2023-09-19T02:36:22;19.90;75.30
8103;DHT22;4094;49.948;11.574;2023-09-19T02:38:52;19.90;75.60
8103;DHT22;4094;49.948;11.574;2023-09-19T02:41:21;19.90;75.50
8103;DHT22;4094;49.948;11.574;2023-09-19T02:43:50;19.90;75.50
8103;DHT22;4094;49.948;11.574;2023-09-19T02:46:20;19.90;75.50
8103;DHT22;4094;49.948;11.574;2023-09-19T02:48:50;20.00;75.50
8103;DHT22;4094;49.948;11.574;2023-09-19T02:51:20;20.00;75.50
8103;DHT22;4094;49.948;11.574;2023-09-19T02:53:50;20.00;75.50
8103;DHT22;4094;49.948;11.574;2023-09-19T02:56:20;20.00;75.40
8103;DHT22;4094;49.948;11.574;2023-09-19T02:58:50;20.00;75.50
8103;DHT22;4094;49.948;11.574;2023-09-19T03:01:20;20.00;75.30
8103;DHT22;4094;49.948;11.574;2023-09-19T03:03:49;20.10;75.30
8103;DHT22;4094;49.948;11.574;2023-09-19T03:06:20;20.10;75.30
8103;DHT22;4094;49.948;11.574;2023-09-19T03:08:49;20.10;75.20
8103;DHT22;4094;49.948;11.574;2023-09-19T03:11:21;20.10;75.30
8103;DHT22;4094;49.948;11.574;2023-09-19T03:13:55;20.10;74.50
8103;DHT22;4094;49.948;11.574;2023-09-19T03:16:25;20.00;74.50
8103;DHT22;4094;49.948;11.574;2023-09-19T03:18:58;20.10;74.90
8103;DHT22;4094;49.948;11.574;2023-09-19T03:21:31;20.10;74.90
8103;DHT22;4094;49.948;11.574;2023-09-19T03:24:02;20.10;74.70
8103;DHT22;4094;49.948;11.574;2023-09-19T03:26:32;20.10;74.70
8103;DHT22;4094;49.948;11.574;2023-09-19T03:29:03;20.10;74.90
8103;DHT22;4094;49.948;11.574;2023-09-19T03:31:35;20.10;75.00
8103;DHT22;4094;49.948;11.574;2023-09-19T03:34:08;20.10;75.10
8103;DHT22;4094;49.948;11.574;2023-09-19T03:36:39;20.10;74.90
8103;DHT22;4094;49.948;11.574;2023-09-19T03:39:09;20.10;75.00
8103;DHT22;4094;49.948;11.574;2023-09-19T03:41:38;20.10;75.00
8103;DHT22;4094;49.948;11.574;2023-09-19T03:44:07;20.20;74.70
8103;DHT22;4094;49.948;11.574;2023-09-19T03:46:36;20.20;74.90
8103;DHT22;4094;49.948;11.574;2023-09-19T03:49:06;20.20;74.80
8103;DHT22;4094;49.948;11.574;2023-09-19T03:51:36;20.20;74.80
8103;DHT22;4094;49.948;11.574;2023-09-19T03:54:07;20.20;74.70
8103;DHT22;4094;49.948;11.574;2023-09-19T03:56:36;20.20;74.60
8103;DHT22;4094;49.948;11.574;2023-09-19T03:59:06;20.20;74.30
8103;DHT22;4094;49.948;11.574;2023-09-19T04:01:36;20.20;74.90
8103;DHT22;4094;49.948;11.574;2023-09-19T04:04:06;20.20;74.10
8103;DHT22;4094;49.948;11.574;2023-09-19T04:06:37;20.30;74.20
8103;DHT22;4094;49.948;11.574;2023-09-19T04:09:07;20.30;74.20
8103;DHT22;4094;49.948;11.574;2023-09-19T04:11:38;20.30;74.10
8103;DHT22;4094;49.948;11.574;2023-09-19T04:14:07;20.30;74.10
8103;DHT22;4094;49.948;11.574;2023-09-19T04:16:36;20.30;73.90
8103;DHT22;4094;49.948;11.574;2023-09-19T04:19:07;20.30;74.00
8103;DHT22;4094;49.948;11.574;2023-09-19T04:21:36;20.30;73.90
8103;DHT22;4094;49.948;11.574;2023-09-19T04:24:07;20.30;73.90
8103;DHT22;4094;49.948;11.574;2023-09-19T04:26:37;20.30;73.80
8103;DHT22;4094;49.948;11.574;2023-09-19T04:29:06;20.30;73.80
8103;DHT22;4094;49.948;11.574;2023-09-19T04:31:38;20.20;73.70
8103;DHT22;4094;49.948;11.574;2023-09-19T04:34:08;20.20;73.70
8103;DHT22;4094;49.948;11.574;2023-09-19T04:36:38;20.20;73.90
8103;DHT22;4094;49.948;11.574;2023-09-19T04:39:08;20.20;73.80
8103;DHT22;4094;49.948;11.574;2023-09-19T04:41:38;20.20;73.70
8103;DHT22;4094;49.948;11.574;2023-09-19T04:44:09;20.20;73.70
8103;DHT22;4094;49.948;11.574;2023-09-19T04:46:38;20.20;73.70
8103;DHT22;4094;49.948;11.574;2023-09-19T04:49:07;20.20;73.80
8103;DHT22;4094;49.948;11.574;2023-09-19T04:51:36;20.20;73.70
8103;DHT22;4094;49.948;11.574;2023-09-19T04:54:05;20.20;73.90
8103;DHT22;4094;49.948;11.574;2023-09-19T04:56:37;20.10;74.00
8103;DHT22;4094;49.948;11.574;2023-09-19T04:59:08;20.10;74.00
8103;DHT22;4094;49.948;11.574;2023-09-19T05:01:38;20.10;74.00
8103;DHT22;4094;49.948;11.574;2023-09-19T05:04:08;20.10;74.00
8103;DHT22;4094;49.948;11.574;2023-09-19T05:06:37;20.10;73.90
8103;DHT22;4094;49.948;11.574;2023-09-19T05:09:06;20.10;73.90
8103;DHT22;4094;49.948;11.574;2023-09-19T05:11:37;20.10;73.90
8103;DHT22;4094;49.948;11.574;2023-09-19T05:14:07;20.10;74.00
8103;DHT22;4094;49.948;11.574;2023-09-19T05:16:36;20.10;74.00
8103;DHT22;4094;49.948;11.574;2023-09-19T05:19:05;20.10;74.10
8103;DHT22;4094;49.948;11.574;2023-09-19T05:21:34;20.10;74.20
8103;DHT22;4094;49.948;11.574;2023-09-19T05:24:04;20.10;74.20
8103;DHT22;4094;49.948;11.574;2023-09-19T05:26:39;20.10;74.20
8103;DHT22;4094;49.948;11.574;2023-09-19T05:29:08;20.10;74.30
8103;DHT22;4094;49.948;11.574;2023-09-19T05:31:37;20.10;74.30
8103;DHT22;4094;49.948;11.574;2023-09-19T05:34:09;20.20;74.30
8103;DHT22;4094;49.948;11.574;2023-09-19T05:36:38;20.20;74.20
8103;DHT22;4094;49.948;11.574;2023-09-19T05:39:08;20.20;74.10
8103;DHT22;4094;49.948;11.574;2023-09-19T05:41:39;20.20;74.10
8103;DHT22;4094;49.948;11.574;2023-09-19T05:44:09;20.20;74.10
8103;DHT22;4094;49.948;11.574;2023-09-19T05:46:38;20.20;74.20
8103;DHT22;4094;49.948;11.574;2023-09-19T05:49:07;20.20;74.00
8103;DHT22;4094;49.948;11.574;2023-09-19T05:51:36;20.30;74.00
8103;DHT22;4094;49.948;11.574;2023-09-19T05:54:06;20.30;74.00
8103;DHT22;4094;49.948;11.574;2023-09-19T05:56:35;20.30;73.90
8103;DHT22;4094;49.948;11.574;2023-09-19T05:59:06;20.30;73.90
8103;DHT22;4094;49.948;11.574;2023-09-19T06:01:35;20.30;73.80
8103;DHT22;4094;49.948;11.574;2023-09-19T06:04:05;20.30;73.80
8103;DHT22;4094;49.948;11.574;2023-09-19T06:06:34;20.30;73.60
8103;DHT22;4094;49.948;11.574;2023-09-19T06:09:07;20.30;73.60
8103;DHT22;4094;49.948;11.574;2023-09-19T06:11:37;20.30;73.70
8103;DHT22;4094;49.948;11.574;2023-09-19T06:14:08;20.30;73.80
8103;DHT22;4094;49.948;11.574;2023-09-19T06:16:38;20.30;73.90
8103;DHT22;4094;49.948;11.574;2023-09-19T06:19:09;20.30;73.90
8103;DHT22;4094;49.948;11.574;2023-09-19T06:21:38;20.40;73.80
8103;DHT22;4094;49.948;11.574;2023-09-19T06:24:07;20.40;73.90
8103;DHT22;4094;49.948;11.574;2023-09-19T06:26:36;20.40;73.80
8103;DHT22;4094;49.948;11.574;2023-09-19T06:29:06;20.50;73.70
8103;DHT22;4094;49.948;11.574;2023-09-19T06:31:39;20.50;73.50
8103;DHT22;4094;49.948;11.574;2023-09-19T06:34:08;20.50;73.10
8103;DHT22;4094;49.948;11.574;2023-09-19T06:36:37;20.50;73.20
8103;DHT22;4094;49.948;11.574;2023-09-19T06:39:06;20.50;73.40
8103;DHT22;4094;49.948;11.574;2023-09-19T06:41:39;20.50;73.20
8103;DHT22;4094;49.948;11.574;2023-09-19T06:44:10;20.50;73.10
8103;DHT22;4094;49.948;11.574;2023-09-19T06:46:41;20.50;73.20
8103;DHT22;4094;49.948;11.574;2023-09-19T06:49:12;20.40;72.90
8103;DHT22;4094;49.948;11.574;2023-09-19T06:51:43;20.40;73.10
8103;DHT22;4094;49.948;11.574;2023-09-19T06:54:12;20.40;73.20
8103;DHT22;4094;49.948;11.574;2023-09-19T06:56:41;20.50;73.40
8103;DHT22;4094;49.948;11.574;2023-09-19T06:59:10;20.50;73.40
8103;DHT22;4094;49.948;11.574;2023-09-19T07:01:43;20.60;73.60
8103;DHT22;4094;49.948;11.574;2023-09-19T07:04:13;20.70;74.30
8103;DHT22;4094;49.948;11.574;2023-09-19T07:06:42;20.80;73.40
8103;DHT22;4094;49.948;11.574;2023-09-19T07:09:13;20.90;73.30
8103;DHT22;4094;49.948;11.574;2023-09-19T07:11:42;21.00;73.10
8103;DHT22;4094;49.948;11.574;2023-09-19T07:14:12;21.20;73.10
8103;DHT22;4094;49.948;11.574;2023-09-19T07:16:43;21.30;72.50
8103;DHT22;4094;49.948;11.574;2023-09-19T07:19:13;21.50;71.60
8103;DHT22;4094;49.948;11.574;2023-09-19T07:21:42;21.70;70.80
8103;DHT22;4094;49.948;11.574;2023-09-19T07:24:15;21.80;70.00
8103;DHT22;4094;49.948;11.574;2023-09-19T07:26:45;22.00;69.60
8103;DHT22;4094;49.948;11.574;2023-09-19T07:29:14;22.20;68.70
8103;DHT22;4094;49.948;11.574;2023-09-19T07:31:45;22.30;68.10
8103;DHT22;4094;49.948;11.574;2023-09-19T07:34:15;22.50;66.90
8103;DHT22;4094;49.948;11.574;2023-09-19T07:36:44;22.60;66.60
8103;DHT22;4094;49.948;11.574;2023-09-19T07:39:15;22.70;66.80
8103;DHT22;4094;49.948;11.574;2023-09-19T07:41:50;22.80;66.40
8103;DHT22;4094;49.948;11.574;2023-09-19T07:44:19;23.10;66.00
8103;DHT22;4094;49.948;11.574;2023-09-19T07:46:50;23.30;65.70
8103;DHT22;4094;49.948;11.574;2023-09-19T07:49:20;23.60;65.40
8103;DHT22;4094;49.948;11.574;2023-09-19T07:51:49;24.10;64.60
8103;DHT22;4094;49.948;11.574;2023-09-19T07:54:20;24.60;62.50
8103;DHT22;4094;49.948;11.574;2023-09-19T07:56:50;25.10;60.90
8103;DHT22;4094;49.948;11.574;2023-09-19T07:59:19;25.60;59.70
8103;DHT22;4094;49.948;11.574;2023-09-19T08:01:50;25.80;58.40
8103;DHT22;4094;49.948;11.574;2023-09-19T08:04:20;26.00;57.00
8103;DHT22;4094;49.948;11.574;2023-09-19T08:06:49;25.90;56.10
8103;DHT22;4094;49.948;11.574;2023-09-19T08:09:20;25.80;56.10
8103;DHT22;4094;49.948;11.574;2023-09-19T08:11:52;25.50;55.60
8103;DHT22;4094;49.948;11.574;2023-09-19T08:14:22;25.30;55.20
8103;DHT22;4094;49.948;11.574;2023-09-19T08:16:56;25.00;55.60
8103;DHT22;4094;49.948;11.574;2023-09-19T08:19:26;24.80;56.20
8103;DHT22;4094;49.948;11.574;2023-09-19T08:21:56;24.60;56.20
8103;DHT22;4094;49.948;11.574;2023-09-19T08:24:27;24.40;56.40
8103;DHT22;4094;49.948;11.574;2023-09-19T08:26:56;24.30;56.70
8103;DHT22;4094;49.948;11.574;2023-09-19T08:29:26;24.20;56.90
8103;DHT22;4094;49.948;11.574;2023-09-19T08:31:58;24.10;57.10
8103;DHT22;4094;49.948;11.574;2023-09-19T08:34:28;23.90;57.10
8103;DHT22;4094;49.948;11.574;2023-09-19T08:37:01;23.70;57.30
8103;DHT22;4094;49.948;11.574;2023-09-19T08:39:30;23.60;58.00
8103;DHT22;4094;49.948;11.574;2023-09-19T08:42:01;23.50;57.70
8103;DHT22;4094;49.948;11.574;2023-09-19T08:44:36;23.40;57.90
8103;DHT22;4094;49.948;11.574;2023-09-19T08:47:11;23.30;57.70
8103;DHT22;4094;49.948;11.574;2023-09-19T08:49:51;23.10;58.30
8103;DHT22;4094;49.948;11.574;2023-09-19T08:52:26;23.10;58.60
8103;DHT22;4094;49.948;11.574;2023-09-19T08:54:59;22.90;58.30
8103;DHT22;4094;49.948;11.574;2023-09-19T08:57:34;22.90;58.10
8103;DHT22;4094;49.948;11.574;2023-09-19T09:00:08;22.80;58.20
8103;DHT22;4094;49.948;11.574;2023-09-19T09:02:40;22.80;58.40
8103;DHT22;4094;49.948;11.574;2023-09-19T09:05:10;22.70;58.30
8103;DHT22;4094;49.948;11.574;2023-09-19T09:07:40;22.70;58.10
8103;DHT22;4094;49.948;11.574;2023-09-19T09:10:10;22.70;58.20
8103;DHT22;4094;49.948;11.574;2023-09-19T09:12:40;22.70;58.50
8103;DHT22;4094;49.948;11.574;2023-09-19T09:15:11;22.70;58.90
8103;DHT22;4094;49.948;11.574;2023-09-19T09:17:48;22.70;58.90
8103;DHT22;4094;49.948;11.574;2023-09-19T09:20:19;22.70;58.80
8103;DHT22;4094;49.948;11.574;2023-09-19T09:22:52;22.70;58.50
8103;DHT22;4094;49.948;11.574;2023-09-19T09:25:23;22.70;58.70
8103;DHT22;4094;49.948;11.574;2023-09-19T09:27:59;22.70;59.00
8103;DHT22;4094;49.948;11.574;2023-09-19T09:30:33;22.70;59.80
8103;DHT22;4094;49.948;11.574;2023-09-19T09:33:12;22.70;59.20
8103;DHT22;4094;49.948;11.574;2023-09-19T09:35:49;22.80;59.00
8103;DHT22;4094;49.948;11.574;2023-09-19T09:38:20;22.80;59.10
8103;DHT22;4094;49.948;11.574;2023-09-19T09:40:55;22.90;57.90
8103;DHT22;4094;49.948;11.574;2023-09-19T09:43:31;23.00;57.90
8103;DHT22;4094;49.948;11.574;2023-09-19T09:46:22;23.10;57.50
8103;DHT22;4094;49.948;11.574;2023-09-19T09:49:28;23.20;57.20
8103;DHT22;4094;49.948;11.574;2023-09-19T09:52:03;23.20;56.40
8103;DHT22;4094;49.948;11.574;2023-09-19T09:54:58;23.20;56.10
8103;DHT22;4094;49.948;11.574;2023-09-19T09:57:28;23.20;56.30
8103;DHT22;4094;49.948;11.574;2023-09-19T09:59:58;23.20;56.50
8103;DHT22;4094;49.948;11.574;2023-09-19T10:02:44;23.20;56.40
8103;DHT22;4094;49.948;11.574;2023-09-19T10:05:17;23.10;56.30
8103;DHT22;4094;49.948;11.574;2023-09-19T10:07:55;23.10;56.50
8103;DHT22;4094;49.948;11.574;2023-09-19T10:10:30;23.00;56.90
8103;DHT22;4094;49.948;11.574;2023-09-19T10:13:07;23.00;57.40
8103;DHT22;4094;49.948;11.574;2023-09-19T10:15:42;23.00;56.90
8103;DHT22;4094;49.948;11.574;2023-09-19T10:18:21;23.10;57.20
8103;DHT22;4094;49.948;11.574;2023-09-19T10:20:52;23.20;56.80
8103;DHT22;4094;49.948;11.574;2023-09-19T10:23:22;23.20;56.50
8103;DHT22;4094;49.948;11.574;2023-09-19T10:25:54;23.30;56.10
8103;DHT22;4094;49.948;11.574;2023-09-19T10:28:23;23.40;55.80
8103;DHT22;4094;49.948;11.574;2023-09-19T10:30:57;23.50;55.60
8103;DHT22;4094;49.948;11.574;2023-09-19T10:33:36;23.50;55.10
8103;DHT22;4094;49.948;11.574;2023-09-19T10:36:08;23.60;54.60
8103;DHT22;4094;49.948;11.574;2023-09-19T10:38:43;23.60;54.40
8103;DHT22;4094;49.948;11.574;2023-09-19T10:41:16;23.70;53.90
8103;DHT22;4094;49.948;11.574;2023-09-19T10:43:48;23.70;54.20
8103;DHT22;4094;49.948;11.574;2023-09-19T10:46:18;23.70;54.00
8103;DHT22;4094;49.948;11.574;2023-09-19T10:48:47;23.70;54.10
8103;DHT22;4094;49.948;11.574;2023-09-19T10:51:23;23.70;53.80
8103;DHT22;4094;49.948;11.574;2023-09-19T10:53:55;23.70;53.80
8103;DHT22;4094;49.948;11.574;2023-09-19T10:56:29;23.70;53.60
8103;DHT22;4094;49.948;11.574;2023-09-19T10:59:08;23.70;53.60
8103;DHT22;4094;49.948;11.574;2023-09-19T11:01:43;23.70;53.50
8103;DHT22;4094;49.948;11.574;2023-09-19T11:04:26;23.70;53.50
8103;DHT22;4094;49.948;11.574;2023-09-19T11:07:04;23.80;53.30
8103;DHT22;4094;49.948;11.574;2023-09-19T11:09:44;23.90;52.90
8103;DHT22;4094;49.948;11.574;2023-09-19T11:12:47;24.00;52.90
8103;DHT22;4094;49.948;11.574;2023-09-19T11:18:53;24.20;53.10
8103;DHT22;4094;49.948;11.574;2023-09-19T11:21:40;24.40;52.90
8103;DHT22;4094;49.948;11.574;2023-09-19T11:24:30;24.50;52.70
8103;DHT22;4094;49.948;11.574;2023-09-19T11:27:14;24.60;52.30
8103;DHT22;4094;49.948;11.574;2023-09-19T11:29:45;24.80;52.60
8103;DHT22;4094;49.948;11.574;2023-09-19T11:32:16;24.90;52.90
8103;DHT22;4094;49.948;11.574;2023-09-19T11:34:48;25.10;52.90
8103;DHT22;4094;49.948;11.574;2023-09-19T11:47:13;26.30;49.90
8103;DHT22;4094;49.948;11.574;2023-09-19T11:49:44;26.40;49.80
8103;DHT22;4094;49.948;11.574;2023-09-19T11:52:21;26.60;49.90
8103;DHT22;4094;49.948;11.574;2023-09-19T11:54:55;26.90;49.60
8103;DHT22;4094;49.948;11.574;2023-09-19T11:57:25;27.00;48.90
8103;DHT22;4094;49.948;11.574;2023-09-19T11:59:55;27.10;48.30
8103;DHT22;4094;49.948;11.574;2023-09-19T12:02:39;27.30;48.00
8103;DHT22;4094;49.948;11.574;2023-09-19T12:05:12;27.50;47.70
8103;DHT22;4094;49.948;11.574;2023-09-19T12:07:43;27.60;46.70
8103;DHT22;4094;49.948;11.574;2023-09-19T12:10:15;27.60;46.70
8103;DHT22;4094;49.948;11.574;2023-09-19T12:12:47;27.60;46.90
8103;DHT22;4094;49.948;11.574;2023-09-19T12:15:22;27.50;46.50
8103;DHT22;4094;49.948;11.574;2023-09-19T12:17:57;27.60;46.80
8103;DHT22;4094;49.948;11.574;2023-09-19T12:20:43;27.70;46.50
8103;DHT22;4094;49.948;11.574;2023-09-19T12:23:17;27.90;46.50
8103;DHT22;4094;49.948;11.574;2023-09-19T12:25:47;27.90;45.40
8103;DHT22;4094;49.948;11.574;2023-09-19T12:28:21;27.80;45.40
8103;DHT22;4094;49.948;11.574;2023-09-19T12:30:50;27.70;46.00
8103;DHT22;4094;49.948;11.574;2023-09-19T12:33:21;27.70;46.10
8103;DHT22;4094;49.948;11.574;2023-09-19T12:35:54;27.60;45.60
8103;DHT22;4094;49.948;11.574;2023-09-19T12:38:24;27.50;45.50
8103;DHT22;4094;49.948;11.574;2023-09-19T12:40:55;27.50;45.90
8103;DHT22;4094;49.948;11.574;2023-09-19T12:43:28;27.40;45.80
8103;DHT22;4094;49.948;11.574;2023-09-19T12:46:00;27.50;45.40
8103;DHT22;4094;49.948;11.574;2023-09-19T12:48:31;27.50;45.40
8103;DHT22;4094;49.948;11.574;2023-09-19T12:51:03;27.80;45.70
8103;DHT22;4094;49.948;11.574;2023-09-19T12:53:35;28.10;45.20
8103;DHT22;4094;49.948;11.574;2023-09-19T12:56:10;28.60;44.70
8103;DHT22;4094;49.948;11.574;2023-09-19T12:58:53;28.90;43.20
8103;DHT22;4094;49.948;11.574;2023-09-19T13:01:24;29.20;42.50
8103;DHT22;4094;49.948;11.574;2023-09-19T13:04:14;29.30;42.70
8103;DHT22;4094;49.948;11.574;2023-09-19T13:06:47;29.40;41.90
8103;DHT22;4094;49.948;11.574;2023-09-19T13:09:19;29.30;42.00
8103;DHT22;4094;49.948;11.574;2023-09-19T13:11:49;29.20;41.50
8103;DHT22;4094;49.948;11.574;2023-09-19T13:14:38;29.10;41.00
8103;DHT22;4094;49.948;11.574;2023-09-19T13:17:12;28.80;41.10
8103;DHT22;4094;49.948;11.574;2023-09-19T13:19:47;28.60;41.00
8103;DHT22;4094;49.948;11.574;2023-09-19T13:22:38;28.30;41.20
8103;DHT22;4094;49.948;11.574;2023-09-19T13:25:08;28.00;41.20
8103;DHT22;4094;49.948;11.574;2023-09-19T13:27:43;27.80;41.10
8103;DHT22;4094;49.948;11.574;2023-09-19T13:30:13;27.40;41.20
8103;DHT22;4094;49.948;11.574;2023-09-19T13:32:42;27.20;41.80
8103;DHT22;4094;49.948;11.574;2023-09-19T13:35:15;27.00;42.10
8103;DHT22;4094;49.948;11.574;2023-09-19T13:37:45;26.70;42.10
8103;DHT22;4094;49.948;11.574;2023-09-19T13:40:16;26.50;42.20
8103;DHT22;4094;49.948;11.574;2023-09-19T13:42:45;26.30;42.70
8103;DHT22;4094;49.948;11.574;2023-09-19T13:45:14;26.10;42.90
8103;DHT22;4094;49.948;11.574;2023-09-19T13:47:46;26.00;43.00
8103;DHT22;4094;49.948;11.574;2023-09-19T13:50:16;25.80;43.00
8103;DHT22;4094;49.948;11.574;2023-09-19T13:52:51;25.70;43.10
8103;DHT22;4094;49.948;11.574;2023-09-19T13:55:21;25.60;42.80
8103;DHT22;4094;49.948;11.574;2023-09-19T13:57:51;25.50;42.90
8103;DHT22;4094;49.948;11.574;2023-09-19T14:00:23;25.40;42.60
8103;DHT22;4094;49.948;11.574;2023-09-19T14:02:53;25.30;43.00
8103;DHT22;4094;49.948;11.574;2023-09-19T14:05:25;25.20;43.00
8103;DHT22;4094;49.948;11.574;2023-09-19T14:07:55;25.20;43.10
8103;DHT22;4094;49.948;11.574;2023-09-19T14:10:25;25.10;43.30
8103;DHT22;4094;49.948;11.574;2023-09-19T14:12:55;25.00;43.30
8103;DHT22;4094;49.948;11.574;2023-09-19T14:15:26;25.00;43.60
8103;DHT22;4094;49.948;11.574;2023-09-19T14:17:58;24.90;43.90
8103;DHT22;4094;49.948;11.574;2023-09-19T14:20:30;24.90;43.80
8103;DHT22;4094;49.948;11.574;2023-09-19T14:22:59;24.80;43.60
8103;DHT22;4094;49.948;11.574;2023-09-19T14:25:29;24.70;43.90
8103;DHT22;4094;49.948;11.574;2023-09-19T14:27:58;24.60;43.90
8103;DHT22;4094;49.948;11.574;2023-09-19T14:30:27;24.60;43.90
8103;DHT22;4094;49.948;11.574;2023-09-19T14:32:57;24.60;44.60
8103;DHT22;4094;49.948;11.574;2023-09-19T14:35:26;24.50;44.00
8103;DHT22;4094;49.948;11.574;2023-09-19T14:37:57;24.40;43.90
8103;DHT22;4094;49.948;11.574;2023-09-19T14:40:26;24.40;44.30
8103;DHT22;4094;49.948;11.574;2023-09-19T14:42:55;24.30;44.50
8103;DHT22;4094;49.948;11.574;2023-09-19T14:45:24;24.30;44.70
8103;DHT22;4094;49.948;11.574;2023-09-19T14:47:55;24.20;43.90
8103;DHT22;4094;49.948;11.574;2023-09-19T14:50:25;24.10;44.40
8103;DHT22;4094;49.948;11.574;2023-09-19T14:52:54;24.10;45.00
8103;DHT22;4094;49.948;11.574;2023-09-19T14:55:25;24.00;44.80
8103;DHT22;4094;49.948;11.574;2023-09-19T14:57:55;24.00;45.00
8103;DHT22;4094;49.948;11.574;2023-09-19T15:00:26;24.00;45.10
8103;DHT22;4094;49.948;11.574;2023-09-19T15:02:56;24.00;45.10
8103;DHT22;4094;49.948;11.574;2023-09-19T15:05:25;24.00;45.40
8103;DHT22;4094;49.948;11.574;2023-09-19T15:07:57;24.00;45.40
8103;DHT22;4094;49.948;11.574;2023-09-19T15:10:27;24.00;45.60
8103;DHT22;4094;49.948;11.574;2023-09-19T15:12:57;24.00;45.40
8103;DHT22;4094;49.948;11.574;2023-09-19T15:15:26;24.00;45.40
8103;DHT22;4094;49.948;11.574;2023-09-19T15:17:55;24.00;45.50
8103;DHT22;4094;49.948;11.574;2023-09-19T15:20:25;24.00;45.60
8103;DHT22;4094;49.948;11.574;2023-09-19T15:22:54;24.00;45.50
8103;DHT22;4094;49.948;11.574;2023-09-19T15:25:25;23.90;46.30
8103;DHT22;4094;49.948;11.574;2023-09-19T15:27:56;23.90;46.20
8103;DHT22;4094;49.948;11.574;2023-09-19T15:30:29;23.90;45.60
8103;DHT22;4094;49.948;11.574;2023-09-19T15:32:58;23.90;46.40
8103;DHT22;4094;49.948;11.574;2023-09-19T15:35:27;23.90;46.10
8103;DHT22;4094;49.948;11.574;2023-09-19T15:37:57;23.80;46.10
8103;DHT22;4094;49.948;11.574;2023-09-19T15:40:27;23.80;46.10
8103;DHT22;4094;49.948;11.574;2023-09-19T15:42:58;23.80;46.00
8103;DHT22;4094;49.948;11.574;2023-09-19T15:45:28;23.80;46.00
8103;DHT22;4094;49.948;11.574;2023-09-19T15:47:57;23.80;46.40
8103;DHT22;4094;49.948;11.574;2023-09-19T15:50:26;23.80;46.20
8103;DHT22;4094;49.948;11.574;2023-09-19T15:52:57;23.80;46.30
8103;DHT22;4094;49.948;11.574;2023-09-19T15:55:26;23.80;46.40
8103;DHT22;4094;49.948;11.574;2023-09-19T15:57:58;23.70;46.40
8103;DHT22;4094;49.948;11.574;2023-09-19T16:00:27;23.70;46.30
8103;DHT22;4094;49.948;11.574;2023-09-19T16:02:56;23.70;46.50
8103;DHT22;4094;49.948;11.574;2023-09-19T16:05:26;23.70;46.50
8103;DHT22;4094;49.948;11.574;2023-09-19T16:07:55;23.70;46.40
8103;DHT22;4094;49.948;11.574;2023-09-19T16:10:25;23.70;46.40
8103;DHT22;4094;49.948;11.574;2023-09-19T16:12:54;23.70;46.30
8103;DHT22;4094;49.948;11.574;2023-09-19T16:15:24;23.70;46.20
8103;DHT22;4094;49.948;11.574;2023-09-19T16:17:53;23.70;46.40
8103;DHT22;4094;49.948;11.574;2023-09-19T16:20:23;23.60;46.30
8103;DHT22;4094;49.948;11.574;2023-09-19T16:22:52;23.60;46.10
8103;DHT22;4094;49.948;11.574;2023-09-19T16:25:21;23.60;46.20
8103;DHT22;4094;49.948;11.574;2023-09-19T16:27:51;23.60;46.20